createdAt,value
2022-08-17T00:02:25.501Z,10.75
2022-08-17T00:04:55.750Z,10.55
2022-08-17T00:07:30.403Z,9.88
2022-08-17T00:09:59.790Z,13.38
2022-08-17T00:12:41.839Z,12.85
2022-08-17T00:15:13.487Z,12.65
2022-08-17T00:17:47.607Z,14.10
2022-08-17T00:20:18.617Z,12.80
2022-08-17T00:23:16.773Z,11.93
2022-08-17T00:25:46.923Z,11.43
2022-08-17T00:28:17.223Z,12.65
2022-08-17T00:30:53.418Z,12.40
2022-08-17T00:33:29.530Z,12.52
2022-08-17T00:36:15.806Z,13.85
2022-08-17T00:38:45.589Z,11.07
2022-08-17T00:41:21.463Z,11.07
2022-08-17T00:43:58.941Z,11.23
2022-08-17T00:46:29.647Z,12.10
2022-08-17T00:51:38.965Z,14.23
2022-08-17T00:54:10.263Z,13.93
2022-08-17T00:56:45.694Z,15.35
2022-08-17T00:59:18.120Z,16.15
2022-08-17T01:01:52.084Z,17.30
2022-08-17T01:04:23.325Z,15.55
2022-08-17T01:06:53.827Z,22.08
2022-08-17T01:09:23.042Z,19.88
2022-08-17T01:11:52.408Z,15.43
2022-08-17T01:14:27.962Z,13.65
2022-08-17T01:16:57.187Z,12.40
2022-08-17T01:19:29.457Z,13.15
2022-08-17T01:22:07.624Z,11.93
2022-08-17T01:24:39.052Z,12.00
2022-08-17T01:27:10.892Z,11.80
2022-08-17T01:29:43.629Z,11.88
2022-08-17T01:32:14.454Z,11.80
2022-08-17T01:34:50.692Z,13.40
2022-08-17T01:37:30.238Z,13.48
2022-08-17T01:40:06.325Z,21.35
2022-08-17T01:45:24.282Z,18.35
2022-08-17T01:48:01.116Z,13.13
2022-08-17T01:50:35.472Z,14.20
2022-08-17T01:53:12.060Z,13.93
2022-08-17T01:56:07.700Z,13.30
2022-08-17T02:01:11.779Z,13.13
2022-08-17T02:03:54.567Z,12.30
2022-08-17T02:06:53.394Z,13.20
2022-08-17T02:09:32.454Z,12.15
2022-08-17T02:12:38.278Z,12.68
2022-08-17T02:14:56.019Z,12.95
2022-08-17T02:17:29.447Z,11.95
2022-08-17T02:19:57.830Z,12.05
2022-08-17T02:22:34.906Z,12.57
2022-08-17T02:25:06.047Z,12.30
2022-08-17T02:27:34.801Z,12.02
2022-08-17T02:30:59.850Z,18.05
2022-08-17T02:32:59.507Z,16.73
2022-08-17T02:35:35.063Z,14.10
2022-08-17T02:38:16.748Z,15.48
2022-08-17T02:40:45.603Z,13.60
2022-08-17T02:43:16.388Z,13.45
2022-08-17T02:45:45.828Z,13.40
2022-08-17T02:48:31.269Z,12.40
2022-08-17T02:51:05.224Z,14.63
2022-08-17T02:53:35.806Z,25.60
2022-08-17T02:56:06.893Z,13.60
2022-08-17T02:58:37.026Z,12.98
2022-08-17T03:01:11.014Z,12.70
2022-08-17T03:03:41.326Z,13.27
2022-08-17T03:06:12.340Z,13.70
2022-08-17T03:09:00.855Z,13.57
2022-08-17T03:14:08.656Z,14.43
2022-08-17T03:16:42.062Z,12.40
2022-08-17T03:19:25.050Z,12.40
2022-08-17T03:21:55.410Z,12.00
2022-08-17T03:24:28.646Z,12.30
2022-08-17T03:26:57.151Z,13.18
2022-08-17T03:29:28.023Z,12.60
2022-08-17T03:31:58.145Z,12.60
2022-08-17T03:34:27.891Z,12.02
2022-08-17T03:36:59.212Z,13.80
2022-08-17T03:39:27.723Z,12.88
2022-08-17T03:42:04.105Z,12.65
2022-08-17T03:44:42.159Z,12.68
2022-08-17T03:47:29.493Z,13.95
2022-08-17T03:50:16.591Z,13.07
2022-08-17T03:53:19.898Z,13.15
2022-08-17T03:56:09.506Z,13.52
2022-08-17T03:58:39.977Z,12.95
2022-08-17T04:01:12.011Z,12.98
2022-08-17T04:03:44.769Z,11.85
2022-08-17T04:06:14.683Z,11.65
2022-08-17T04:08:50.441Z,11.43
2022-08-17T04:11:19.801Z,11.52
2022-08-17T04:13:52.527Z,11.20
2022-08-17T04:16:27.643Z,11.10
2022-08-17T04:19:05.768Z,10.57
2022-08-17T04:21:36.336Z,11.32
2022-08-17T04:24:08.117Z,13.38
2022-08-17T04:26:52.810Z,12.05
2022-08-17T04:29:26.139Z,11.95
2022-08-17T04:32:14.931Z,11.13
2022-08-17T04:34:44.458Z,11.50
2022-08-17T04:37:13.506Z,12.02
2022-08-17T04:40:04.505Z,9.93
2022-08-17T04:42:35.327Z,10.55
2022-08-17T04:45:05.127Z,11.82
2022-08-17T04:47:36.287Z,16.83
2022-08-17T04:50:10.942Z,14.57
2022-08-17T04:52:46.692Z,12.55
2022-08-17T04:55:17.161Z,11.02
2022-08-17T04:57:46.096Z,11.48
2022-08-17T05:00:15.904Z,8.02
2022-08-17T05:02:51.106Z,7.75
2022-08-17T05:05:23.121Z,7.78
2022-08-17T05:07:56.978Z,7.28
2022-08-17T05:10:36.985Z,7.10
2022-08-17T05:13:11.945Z,8.60
2022-08-17T05:15:45.323Z,10.77
2022-08-17T05:18:17.715Z,12.15
2022-08-17T05:20:46.835Z,9.60
2022-08-17T05:23:18.554Z,8.48
2022-08-17T05:25:56.131Z,7.63
2022-08-17T05:28:33.868Z,9.15
2022-08-17T05:31:12.284Z,6.85
2022-08-17T05:33:46.165Z,6.50
2022-08-17T05:36:42.397Z,7.25
2022-08-17T05:39:16.522Z,7.05
2022-08-17T05:41:48.347Z,7.18
2022-08-17T05:44:17.952Z,7.38
2022-08-17T05:46:54.931Z,7.13
2022-08-17T05:49:28.713Z,6.57
2022-08-17T05:52:19.740Z,6.97
2022-08-17T05:55:01.982Z,7.60
2022-08-17T05:57:57.332Z,6.55
2022-08-17T06:00:58.791Z,6.30
2022-08-17T06:03:52.151Z,6.47
2022-08-17T06:06:44.883Z,6.43
2022-08-17T06:09:43.032Z,7.13
2022-08-17T06:12:57.172Z,6.30
2022-08-17T06:15:54.470Z,6.05
2022-08-17T06:18:36.738Z,6.93
2022-08-17T06:21:13.117Z,7.00
2022-08-17T06:23:55.256Z,6.07
2022-08-17T06:26:38.474Z,6.57
2022-08-17T06:29:50.159Z,6.22
2022-08-17T06:32:23.233Z,6.00
2022-08-17T06:35:00.840Z,5.60
2022-08-17T06:37:58.742Z,5.90
2022-08-17T06:41:03.615Z,5.85
2022-08-17T06:44:06.875Z,5.13
2022-08-17T06:46:40.382Z,5.40
2022-08-17T06:49:34.852Z,5.25
2022-08-17T06:52:46.790Z,5.85
2022-08-17T06:56:06.039Z,5.88
2022-08-17T06:58:40.291Z,5.30
2022-08-17T07:01:15.095Z,5.20
2022-08-17T07:04:12.110Z,5.10
2022-08-17T07:06:57.279Z,5.18
2022-08-17T07:09:35.911Z,5.28
2022-08-17T07:12:28.171Z,4.60
2022-08-17T07:15:10.738Z,5.15
2022-08-17T07:17:55.866Z,4.40
2022-08-17T07:20:30.063Z,4.72
2022-08-17T07:23:16.229Z,4.55
2022-08-17T07:25:49.188Z,4.82
2022-08-17T07:28:26.402Z,5.03
2022-08-17T07:30:57.632Z,4.60
2022-08-17T07:33:30.123Z,5.18
2022-08-17T07:36:15.991Z,4.90
2022-08-17T07:38:58.246Z,5.40
2022-08-17T07:41:57.322Z,4.72
2022-08-17T07:44:34.871Z,5.00
2022-08-17T07:47:36.167Z,7.05
2022-08-17T07:50:29.321Z,5.45
2022-08-17T07:53:18.531Z,4.63
2022-08-17T07:56:11.138Z,4.22
2022-08-17T07:59:11.672Z,4.50
2022-08-17T08:01:49.124Z,5.30
2022-08-17T08:04:59.714Z,4.40
2022-08-17T08:07:36.087Z,4.25
2022-08-17T08:10:17.806Z,3.92
2022-08-17T08:13:15.143Z,4.35
2022-08-17T08:16:01.490Z,4.75
2022-08-17T08:18:55.566Z,4.47
2022-08-17T08:21:47.517Z,4.97
2022-08-17T08:24:51.872Z,4.47
2022-08-17T08:27:35.924Z,4.68
2022-08-17T08:30:18.105Z,4.68
2022-08-17T08:39:35.496Z,5.10
2022-08-17T08:42:36.361Z,5.50
2022-08-17T08:45:35.510Z,5.55
2022-08-17T08:48:55.739Z,5.60
2022-08-17T08:51:41.313Z,4.80
2022-08-17T08:54:26.577Z,4.55
2022-08-17T08:57:22.296Z,5.07
2022-08-17T08:59:58.065Z,4.95
2022-08-17T09:03:04.635Z,5.05
2022-08-17T09:06:37.706Z,5.43
2022-08-17T09:09:49.574Z,5.22
2022-08-17T09:12:33.916Z,5.13
2022-08-17T09:15:27.820Z,5.30
2022-08-17T09:19:00.640Z,5.40
2022-08-17T09:21:34.799Z,4.97
2022-08-17T09:24:15.251Z,5.47
2022-08-17T09:27:18.574Z,5.43
2022-08-17T09:29:51.698Z,5.32
2022-08-17T09:32:42.386Z,5.63
2022-08-17T09:35:19.898Z,5.53
2022-08-17T09:38:03.917Z,4.80
2022-08-17T09:40:49.313Z,5.00
2022-08-17T09:43:33.376Z,5.05
2022-08-17T09:46:22.314Z,5.57
2022-08-17T09:49:03.810Z,4.90
2022-08-17T09:51:55.328Z,6.20
2022-08-17T09:54:39.645Z,5.72
2022-08-17T10:00:17.496Z,5.50
2022-08-17T10:03:20.920Z,4.75
2022-08-17T10:06:21.345Z,5.03
2022-08-17T10:09:25.292Z,5.05
2022-08-17T10:12:21.848Z,5.00
2022-08-17T10:18:42.271Z,5.03
2022-08-17T10:21:37.831Z,5.05
2022-08-17T10:24:40.906Z,5.05
2022-08-17T10:27:48.983Z,4.88
2022-08-17T10:30:30.522Z,4.90
2022-08-17T10:37:20.159Z,5.83
2022-08-17T10:44:41.113Z,5.60
2022-08-17T10:51:22.553Z,5.30
2022-08-17T10:53:58.132Z,5.57
2022-08-17T10:56:51.329Z,5.22
2022-08-17T10:59:39.068Z,4.75
2022-08-17T11:12:39.065Z,5.22
2022-08-17T11:16:00.636Z,5.10
2022-08-17T11:22:22.278Z,5.45
2022-08-17T11:25:52.785Z,5.63
2022-08-17T11:28:36.227Z,5.30
2022-08-17T11:31:38.373Z,5.10
2022-08-17T11:34:14.980Z,15.65
2022-08-17T11:37:01.937Z,17.08
2022-08-17T11:39:39.458Z,11.18
2022-08-17T11:43:01.086Z,5.60
2022-08-17T11:45:40.081Z,5.22
2022-08-17T11:48:39.390Z,5.93
2022-08-17T11:51:33.926Z,5.60
2022-08-17T11:54:32.965Z,5.63
2022-08-17T11:57:25.486Z,5.47
2022-08-17T12:00:14.983Z,5.10
2022-08-17T12:03:26.482Z,5.78
2022-08-17T12:08:55.337Z,7.38
2022-08-17T12:12:11.043Z,5.55
2022-08-17T12:15:05.635Z,7.80
2022-08-17T12:17:40.093Z,5.10
2022-08-17T12:20:45.259Z,5.03
2022-08-17T12:23:34.411Z,4.75
2022-08-17T12:26:19.831Z,4.82
2022-08-17T12:29:00.140Z,5.07
2022-08-17T12:32:03.748Z,4.43
2022-08-17T12:35:09.458Z,5.70
2022-08-17T12:37:48.704Z,5.55
2022-08-17T12:40:31.706Z,5.78
2022-08-17T12:43:35.065Z,6.43
2022-08-17T12:46:17.210Z,10.18
2022-08-17T12:49:27.695Z,9.55
2022-08-17T12:52:25.499Z,8.00
2022-08-17T12:55:32.520Z,8.45
2022-08-17T12:58:20.205Z,8.27
2022-08-17T13:01:03.419Z,9.45
2022-08-17T13:06:52.338Z,7.50
2022-08-17T13:09:40.673Z,6.95
2022-08-17T13:13:06.181Z,6.88
2022-08-17T13:19:16.789Z,6.50
2022-08-17T13:21:51.996Z,6.40
2022-08-17T13:24:30.928Z,6.35
2022-08-17T13:27:15.417Z,6.50
2022-08-17T13:29:45.781Z,6.80
2022-08-17T13:32:36.498Z,7.15
2022-08-17T13:35:38.883Z,6.53
2022-08-17T13:38:49.812Z,6.70
2022-08-17T13:41:38.139Z,5.97
2022-08-17T13:44:33.470Z,6.32
2022-08-17T13:47:32.601Z,6.13
2022-08-17T13:50:03.850Z,5.93
2022-08-17T13:52:36.250Z,5.25
2022-08-17T13:55:29.380Z,5.78
2022-08-17T13:58:06.679Z,5.85
2022-08-17T14:00:37.436Z,6.18
2022-08-17T14:03:17.127Z,5.53
2022-08-17T14:05:51.678Z,5.65
2022-08-17T14:08:22.028Z,6.40
2022-08-17T14:10:59.359Z,6.68
2022-08-17T14:13:34.594Z,6.50
2022-08-17T14:16:13.561Z,6.47
2022-08-17T14:18:56.749Z,6.55
2022-08-17T14:21:29.013Z,7.07
2022-08-17T14:24:01.064Z,8.80
2022-08-17T14:26:31.244Z,7.85
2022-08-17T14:29:03.243Z,7.40
2022-08-17T14:31:37.571Z,6.50
2022-08-17T14:34:11.126Z,6.78
2022-08-17T14:36:48.170Z,6.40
2022-08-17T14:39:19.220Z,6.97
2022-08-17T14:41:53.201Z,7.57
2022-08-17T14:44:49.030Z,7.90
2022-08-17T14:47:48.170Z,6.90
2022-08-17T14:50:20.368Z,7.05
2022-08-17T14:52:50.968Z,8.73
2022-08-17T14:55:21.539Z,7.00
2022-08-17T14:57:51.993Z,7.97
2022-08-17T15:00:41.568Z,7.03
2022-08-17T15:03:20.304Z,7.00
2022-08-17T15:05:58.382Z,7.15
2022-08-17T15:08:35.961Z,7.30
2022-08-17T15:11:17.368Z,7.38
2022-08-17T15:13:53.046Z,7.35
2022-08-17T15:16:23.858Z,7.03
2022-08-17T15:18:54.047Z,7.68
2022-08-17T15:21:28.338Z,7.70
2022-08-17T15:23:59.185Z,7.90
2022-08-17T15:26:29.482Z,10.02
2022-08-17T15:29:01.596Z,7.50
2022-08-17T15:31:37.305Z,7.10
2022-08-17T15:34:07.956Z,6.70
2022-08-17T15:36:40.679Z,7.00
2022-08-17T15:39:19.555Z,7.78
2022-08-17T15:41:58.649Z,7.15
2022-08-17T15:44:35.332Z,7.85
2022-08-17T15:47:06.438Z,7.75
2022-08-17T15:49:40.453Z,8.50
2022-08-17T15:52:24.874Z,8.70
2022-08-17T15:54:56.024Z,9.98
2022-08-17T15:57:27.073Z,9.07
2022-08-17T15:59:58.678Z,8.80
2022-08-17T16:03:47.028Z,7.72
2022-08-17T16:05:28.678Z,7.47
2022-08-17T16:08:01.452Z,8.02
2022-08-17T16:10:34.762Z,7.93
2022-08-17T16:13:17.199Z,8.50
2022-08-17T16:15:57.024Z,10.00
2022-08-17T16:18:38.193Z,10.98
2022-08-17T16:21:28.529Z,9.20
2022-08-17T16:24:13.647Z,9.05
2022-08-17T16:26:44.025Z,9.13
2022-08-17T16:29:16.734Z,8.43
2022-08-17T16:31:53.183Z,10.30
2022-08-17T16:34:26.774Z,7.70
2022-08-17T16:36:59.071Z,7.70
2022-08-17T16:39:53.616Z,9.50
2022-08-17T16:42:30.785Z,9.45
2022-08-17T16:45:26.652Z,9.23
2022-08-17T16:48:06.487Z,9.43
2022-08-17T16:51:03.164Z,8.52
2022-08-17T16:54:13.604Z,7.57
2022-08-17T16:56:48.293Z,15.82
2022-08-17T16:59:40.994Z,17.75
2022-08-17T17:02:25.905Z,10.93
2022-08-17T17:05:02.710Z,20.30
2022-08-17T17:08:02.347Z,11.32
2022-08-17T17:10:49.341Z,11.00
2022-08-17T17:13:53.725Z,10.40
2022-08-17T17:16:49.139Z,8.55
2022-08-17T17:19:37.888Z,8.30
2022-08-17T17:22:19.490Z,8.27
2022-08-17T17:24:57.674Z,15.02
2022-08-17T17:31:47.050Z,8.48
2022-08-17T17:35:34.341Z,11.95
2022-08-17T17:50:00.916Z,12.07
2022-08-17T17:57:10.926Z,14.23
2022-08-17T18:03:33.345Z,12.23
2022-08-17T18:06:51.369Z,18.90
2022-08-17T18:21:50.273Z,12.63
2022-08-17T18:42:35.241Z,18.52
2022-08-17T18:57:44.244Z,15.27
2022-08-17T19:01:53.555Z,14.07
2022-08-17T19:05:30.531Z,13.88
2022-08-17T19:08:38.089Z,22.52
2022-08-17T19:11:37.001Z,12.95
2022-08-17T19:14:12.290Z,14.35
2022-08-17T19:17:17.624Z,14.82
2022-08-17T19:23:34.057Z,11.90
2022-08-17T19:26:53.636Z,12.05
2022-08-17T19:33:05.283Z,11.73
2022-08-17T19:40:53.143Z,14.63
2022-08-17T19:44:08.323Z,12.23
2022-08-17T19:54:06.054Z,18.45
2022-08-17T19:56:58.864Z,15.73
2022-08-17T19:59:50.307Z,16.27
2022-08-17T20:03:16.350Z,16.63
2022-08-17T20:06:14.033Z,13.35
2022-08-17T20:16:39.800Z,13.63
2022-08-17T20:22:59.276Z,14.40
2022-08-17T20:25:57.285Z,11.68
2022-08-17T20:33:31.956Z,17.60
2022-08-17T20:36:13.911Z,22.10
2022-08-17T20:38:56.910Z,14.43
2022-08-17T20:41:31.524Z,13.35
2022-08-17T20:44:06.588Z,17.20
2022-08-17T20:46:41.146Z,16.52
2022-08-17T20:49:52.941Z,12.88
2022-08-17T21:01:34.899Z,10.98
2022-08-17T21:04:22.345Z,11.07
2022-08-17T21:21:36.378Z,12.40
2022-08-17T21:24:48.904Z,12.10
2022-08-17T21:27:41.594Z,10.43
2022-08-17T21:33:38.202Z,12.55
2022-08-17T21:36:16.324Z,12.13
2022-08-17T21:39:09.067Z,12.60
2022-08-17T21:42:15.272Z,11.82
2022-08-17T21:45:44.610Z,15.40
2022-08-17T21:48:30.812Z,15.43
2022-08-17T21:51:21.498Z,12.85
2022-08-17T21:58:49.873Z,12.40
2022-08-17T22:04:54.974Z,10.63
2022-08-17T22:17:36.842Z,11.27
2022-08-17T22:20:41.092Z,9.95
2022-08-17T22:24:23.280Z,8.48
2022-08-17T22:27:43.302Z,10.43
2022-08-17T22:30:58.331Z,9.20
2022-08-17T22:34:09.015Z,9.23
2022-08-17T22:43:39.055Z,8.88
2022-08-17T22:46:38.243Z,9.43
2022-08-17T22:53:13.275Z,10.25
2022-08-17T22:56:36.328Z,10.13
2022-08-17T22:59:21.375Z,9.32
2022-08-17T23:02:17.401Z,8.95
2022-08-17T23:05:13.507Z,9.82
2022-08-17T23:07:43.632Z,12.02
2022-08-17T23:10:20.138Z,11.80
2022-08-17T23:13:04.350Z,10.00
2022-08-17T23:15:36.619Z,12.18
2022-08-17T23:18:06.535Z,11.30
2022-08-17T23:20:41.754Z,9.98
2022-08-17T23:23:16.799Z,9.75
2022-08-17T23:25:48.520Z,9.13
2022-08-17T23:28:35.924Z,9.57
2022-08-17T23:31:08.265Z,8.93
2022-08-17T23:33:39.703Z,9.70
2022-08-17T23:36:15.593Z,10.70
2022-08-17T23:38:54.179Z,11.23
2022-08-17T23:41:24.624Z,11.23
2022-08-17T23:43:55.343Z,11.75
2022-08-17T23:46:29.061Z,10.55
2022-08-17T23:48:57.354Z,11.82
2022-08-17T23:51:39.560Z,12.35
2022-08-17T23:54:41.802Z,10.00
2022-08-17T23:57:15.847Z,10.40
2022-08-17T23:59:47.982Z,10.93
